Grassy Lake, Canada
Current Conditions -  °F | °C
As of 5:00 PM on Friday 28 Nov 2014 (Local Time) from CYXH Reporting Station
Light Snow Light Snow  
Wind Chill: -20°   Ceiling: 2400
Heat Index:   Visibility: 2.5mi
Dew Point: -4°   Wind: 15mph
Humidity: 85%   Direction: 330°NNW
Pressure: 29.72"   Gusts: 22mph
Location:  49.83°N, 111.7°W
Report Text: CYXH 290000Z 33013G19KT 2 1/2SM -SN DRSN OVC024 M18/M20 A2972 RMK ST8 SLP112
Loading
Personal Weather Stations






























Interactive Weather Map New forecast layout! Learn more

10-Day Weather Forecast

Advertisements
Track Severe Weather on mobile